createdAt,value
2018-11-21T00:01:17.449Z,73.22
2018-11-21T00:03:46.385Z,73.07
2018-11-21T00:06:15.314Z,73.11
2018-11-21T00:08:44.249Z,73.30
2018-11-21T00:11:13.153Z,73.18
2018-11-21T00:13:42.075Z,73.13
2018-11-21T00:16:10.960Z,73.43
2018-11-21T00:18:39.865Z,73.67
2018-11-21T00:21:08.871Z,73.62
2018-11-21T00:23:37.756Z,73.46
2018-11-21T00:26:06.704Z,73.79
2018-11-21T00:28:35.618Z,73.97
2018-11-21T00:31:04.540Z,73.75
2018-11-21T00:33:33.476Z,73.77
2018-11-21T00:36:02.382Z,73.94
2018-11-21T00:38:31.356Z,74.72
2018-11-21T00:41:00.275Z,74.45
2018-11-21T00:43:29.199Z,74.13
2018-11-21T00:45:58.102Z,74.78
2018-11-21T00:48:27.210Z,74.52
2018-11-21T00:50:56.130Z,74.20
2018-11-21T00:53:25.042Z,74.40
2018-11-21T00:55:53.954Z,75.07
2018-11-21T00:58:22.842Z,74.88
2018-11-21T01:00:51.766Z,74.37
2018-11-21T01:03:20.668Z,74.61
2018-11-21T01:05:49.823Z,74.74
2018-11-21T01:08:18.743Z,74.64
2018-11-21T01:10:47.657Z,74.46
2018-11-21T01:13:16.572Z,74.72
2018-11-21T01:15:45.508Z,74.57
2018-11-21T01:18:14.410Z,74.55
2018-11-21T01:20:43.325Z,74.18
2018-11-21T01:23:12.227Z,74.26
2018-11-21T01:25:41.112Z,74.31
2018-11-21T01:28:10.020Z,74.47
2018-11-21T01:30:38.974Z,73.71
2018-11-21T01:33:09.677Z,73.41
2018-11-21T01:35:36.873Z,74.13
2018-11-21T01:38:05.977Z,74.15
2018-11-21T01:40:34.883Z,73.83
2018-11-21T01:43:03.781Z,73.59
2018-11-21T01:45:32.689Z,73.72
2018-11-21T01:48:01.590Z,73.99
2018-11-21T01:50:30.490Z,73.98
2018-11-21T01:52:59.364Z,73.95
2018-11-21T01:55:28.293Z,73.83
2018-11-21T01:57:57.175Z,73.54
2018-11-21T02:00:26.152Z,73.52
2018-11-21T02:02:55.059Z,73.84
2018-11-21T02:05:23.958Z,73.81
2018-11-21T02:07:52.890Z,73.69
2018-11-21T02:10:21.850Z,74.08
2018-11-21T02:12:50.762Z,73.99
2018-11-21T02:15:19.656Z,73.57
2018-11-21T02:17:48.549Z,73.80
2018-11-21T02:20:17.452Z,73.70
2018-11-21T02:22:46.366Z,73.94
2018-11-21T02:25:15.255Z,74.17
2018-11-21T02:27:44.197Z,74.71
2018-11-21T02:30:13.094Z,74.50
2018-11-21T02:32:42.034Z,73.96
2018-11-21T02:35:10.926Z,74.42
2018-11-21T02:37:39.835Z,74.34
2018-11-21T02:40:08.975Z,74.18
2018-11-21T02:42:37.862Z,74.13
2018-11-21T02:45:07.060Z,74.11
2018-11-21T02:47:35.950Z,74.38
2018-11-21T02:50:05.100Z,74.95
2018-11-21T02:52:34.041Z,74.93
2018-11-21T02:55:02.971Z,74.67
2018-11-21T02:57:33.301Z,74.01
2018-11-21T03:00:08.709Z,74.37
2018-11-21T03:02:37.630Z,73.96
2018-11-21T03:05:06.664Z,73.79
2018-11-21T03:07:35.570Z,73.84
2018-11-21T03:10:05.317Z,73.92
2018-11-21T03:12:34.242Z,73.53
2018-11-21T03:15:03.172Z,74.19
2018-11-21T03:17:32.098Z,74.21
2018-11-21T03:20:01.066Z,74.35
2018-11-21T03:22:29.983Z,74.07
2018-11-21T03:24:58.883Z,73.79
2018-11-21T03:27:27.775Z,74.18
2018-11-21T03:29:56.682Z,74.43
2018-11-21T03:32:25.611Z,74.37
2018-11-21T03:34:54.562Z,74.39
2018-11-21T03:37:23.493Z,74.03
2018-11-21T03:39:52.389Z,74.18
2018-11-21T03:42:21.301Z,74.39
2018-11-21T03:44:50.190Z,74.54
2018-11-21T03:47:20.481Z,74.61
2018-11-21T03:49:48.030Z,74.19
2018-11-21T03:52:16.968Z,74.53
2018-11-21T03:54:45.874Z,74.51
2018-11-21T03:57:14.812Z,74.09
2018-11-21T03:59:43.758Z,74.68
2018-11-21T04:02:12.690Z,74.63
2018-11-21T04:04:41.660Z,74.62
2018-11-21T04:07:10.514Z,74.46
2018-11-21T04:09:39.453Z,74.70
2018-11-21T04:12:08.387Z,74.91
2018-11-21T04:14:37.321Z,75.02
2018-11-21T04:17:06.509Z,74.68
2018-11-21T04:19:35.447Z,74.70
2018-11-21T04:22:04.402Z,74.85
2018-11-21T04:24:33.373Z,74.81
2018-11-21T04:27:02.257Z,75.72
2018-11-21T04:29:31.186Z,75.90
2018-11-21T04:32:00.113Z,75.46
2018-11-21T04:34:29.028Z,75.42
2018-11-21T04:36:57.932Z,75.31
2018-11-21T04:39:26.831Z,75.55
2018-11-21T04:41:55.776Z,75.28
2018-11-21T04:44:24.649Z,75.38
2018-11-21T04:46:53.612Z,75.49
2018-11-21T04:49:22.505Z,75.47
2018-11-21T04:51:51.433Z,75.68
2018-11-21T04:54:20.327Z,75.78
2018-11-21T04:56:49.267Z,75.63
2018-11-21T04:59:18.229Z,75.23
2018-11-21T05:01:47.085Z,75.20
2018-11-21T05:04:15.981Z,75.09
2018-11-21T05:06:44.919Z,74.95
2018-11-21T05:09:13.787Z,74.83
2018-11-21T05:11:42.795Z,74.76
2018-11-21T05:14:11.786Z,73.66
2018-11-21T05:16:40.716Z,74.52
2018-11-21T05:19:09.680Z,74.62
2018-11-21T05:21:38.626Z,74.14
2018-11-21T05:24:07.604Z,74.48
2018-11-21T05:26:36.506Z,73.52
2018-11-21T05:29:05.673Z,73.99
2018-11-21T05:31:34.571Z,74.19
2018-11-21T05:34:03.494Z,74.09
2018-11-21T05:36:32.394Z,74.55
2018-11-21T05:39:01.324Z,74.47
2018-11-21T05:41:30.235Z,74.39
2018-11-21T05:43:59.146Z,74.36
2018-11-21T05:46:28.122Z,74.05
2018-11-21T05:48:57.047Z,74.22
2018-11-21T05:51:26.058Z,74.37
2018-11-21T05:53:55.027Z,73.92
2018-11-21T05:56:24.008Z,74.56
2018-11-21T05:58:52.900Z,74.49
2018-11-21T06:01:21.881Z,74.00
2018-11-21T06:03:50.786Z,74.19
2018-11-21T06:06:19.695Z,74.70
2018-11-21T06:08:48.628Z,75.25
2018-11-21T06:11:17.531Z,74.98
2018-11-21T06:13:46.413Z,74.88
2018-11-21T06:16:15.373Z,74.80
2018-11-21T06:18:44.302Z,75.33
2018-11-21T06:21:13.215Z,75.11
2018-11-21T06:23:42.226Z,75.53
2018-11-21T06:26:11.161Z,75.43
2018-11-21T06:28:40.324Z,75.59
2018-11-21T06:31:09.238Z,75.55
2018-11-21T06:33:39.918Z,75.39
2018-11-21T06:36:08.865Z,75.33
2018-11-21T06:38:37.776Z,75.67
2018-11-21T06:41:06.672Z,75.54
2018-11-21T06:43:35.594Z,75.60
2018-11-21T06:46:04.622Z,75.62
2018-11-21T06:48:33.560Z,75.58
2018-11-21T06:51:02.539Z,75.42
2018-11-21T06:53:31.460Z,75.57
2018-11-21T06:56:00.381Z,75.69
2018-11-21T06:58:29.305Z,75.53
2018-11-21T07:00:58.229Z,75.85
2018-11-21T07:03:27.131Z,75.95
2018-11-21T07:05:56.052Z,75.94
2018-11-21T07:08:24.935Z,75.75
2018-11-21T07:10:53.870Z,76.11
2018-11-21T07:13:22.744Z,75.91
2018-11-21T07:15:51.674Z,76.15
2018-11-21T07:18:20.588Z,75.95
2018-11-21T07:20:49.526Z,76.08
2018-11-21T07:23:18.507Z,75.50
2018-11-21T07:25:47.336Z,76.14
2018-11-21T07:28:16.258Z,76.13
2018-11-21T07:30:45.203Z,75.94
2018-11-21T07:33:14.099Z,76.02
2018-11-21T07:35:43.049Z,76.12
2018-11-21T07:38:11.968Z,76.19
2018-11-21T07:40:40.878Z,76.08
2018-11-21T07:43:09.828Z,76.12
2018-11-21T07:45:38.718Z,75.56
2018-11-21T07:48:07.675Z,75.82
2018-11-21T07:50:36.579Z,75.79
2018-11-21T07:53:05.735Z,74.98
2018-11-21T07:55:34.641Z,75.54
2018-11-21T07:58:06.452Z,75.40
2018-11-21T08:01:32.172Z,75.00
2018-11-21T08:04:04.527Z,74.19
2018-11-21T08:06:58.693Z,73.94
2018-11-21T08:09:42.843Z,73.85
2018-11-21T08:12:33.431Z,73.49
2018-11-21T08:15:27.393Z,73.63
2018-11-21T08:18:13.950Z,73.40
2018-11-21T08:21:04.844Z,73.06
2018-11-21T08:23:55.571Z,72.57
2018-11-21T08:26:41.230Z,72.33
2018-11-21T08:29:10.183Z,71.27
2018-11-21T08:31:39.096Z,70.97
2018-11-21T08:34:08.009Z,70.92
2018-11-21T08:36:36.938Z,70.82
2018-11-21T08:39:08.384Z,70.17
2018-11-21T08:41:37.333Z,69.26
2018-11-21T08:44:06.882Z,68.27
2018-11-21T08:46:35.968Z,67.37
2018-11-21T08:49:04.802Z,66.90
2018-11-21T08:51:33.722Z,66.40
2018-11-21T08:54:02.622Z,66.00
2018-11-21T08:56:32.532Z,65.19
2018-11-21T08:59:00.469Z,65.35
2018-11-21T09:01:29.429Z,65.47
2018-11-21T09:03:58.402Z,65.56
2018-11-21T09:06:27.326Z,65.97
2018-11-21T09:08:56.271Z,66.34
2018-11-21T09:11:25.192Z,66.24
2018-11-21T09:13:54.097Z,65.18
2018-11-21T09:16:23.011Z,63.60
2018-11-21T09:18:51.955Z,62.82
2018-11-21T09:21:20.951Z,60.66
2018-11-21T09:23:49.899Z,55.67
2018-11-21T09:26:18.904Z,51.85
2018-11-21T09:28:47.888Z,50.77
2018-11-21T09:31:16.868Z,49.43
2018-11-21T09:33:50.758Z,45.81
2018-11-21T09:36:20.921Z,47.57
2018-11-21T09:38:49.935Z,47.28
2018-11-21T09:41:19.048Z,46.52
2018-11-21T09:43:47.929Z,47.32
2018-11-21T09:46:17.315Z,49.06
2018-11-21T09:48:45.776Z,48.57
2018-11-21T09:51:14.696Z,49.97
2018-11-21T09:53:43.637Z,48.92
2018-11-21T09:56:12.579Z,47.39
2018-11-21T09:58:41.516Z,46.92
2018-11-21T10:01:47.238Z,44.68
2018-11-21T10:04:16.538Z,43.71
2018-11-21T10:06:45.906Z,43.25
2018-11-21T10:09:26.293Z,42.75
2018-11-21T10:11:55.238Z,41.60
2018-11-21T10:14:24.187Z,40.02
2018-11-21T10:16:53.142Z,40.87
2018-11-21T10:19:22.121Z,41.26
2018-11-21T10:21:51.096Z,41.97
2018-11-21T10:24:19.990Z,42.82
2018-11-21T10:26:48.968Z,41.25
2018-11-21T10:29:17.894Z,40.94
2018-11-21T10:31:46.821Z,40.17
2018-11-21T10:34:15.760Z,39.30
2018-11-21T10:36:44.653Z,37.32
2018-11-21T10:39:13.592Z,37.46
2018-11-21T10:41:42.574Z,36.74
2018-11-21T10:44:11.548Z,36.71
2018-11-21T10:46:40.451Z,36.43
2018-11-21T10:49:09.478Z,36.45
2018-11-21T10:51:38.416Z,37.34
2018-11-21T10:54:07.379Z,36.43
2018-11-21T10:56:36.383Z,36.51
2018-11-21T10:59:05.377Z,36.33
2018-11-21T11:01:52.033Z,37.07
2018-11-21T11:04:27.806Z,36.59
2018-11-21T11:07:14.365Z,36.59
2018-11-21T11:09:58.185Z,36.34
2018-11-21T11:12:54.846Z,36.62
2018-11-21T11:15:51.529Z,36.29
2018-11-21T11:18:31.473Z,33.31
2018-11-21T11:21:18.288Z,33.88
2018-11-21T11:24:06.770Z,34.91
2018-11-21T11:26:53.125Z,34.25
2018-11-21T11:29:43.758Z,37.52
2018-11-21T11:32:25.956Z,39.06
2018-11-21T11:35:09.956Z,42.41
2018-11-21T11:38:13.229Z,44.20
2018-11-21T11:40:59.607Z,44.37
2018-11-21T11:43:55.622Z,44.82
2018-11-21T11:46:52.492Z,46.45
2018-11-21T11:49:43.321Z,46.92
2018-11-21T11:52:31.575Z,47.24
2018-11-21T11:55:18.169Z,48.77
2018-11-21T11:58:09.365Z,49.06
2018-11-21T12:00:45.716Z,49.71
2018-11-21T12:03:32.013Z,51.13
2018-11-21T12:06:18.816Z,49.82
2018-11-21T12:09:14.732Z,50.51
2018-11-21T12:12:11.147Z,50.86
2018-11-21T12:14:57.709Z,51.30
2018-11-21T12:17:44.695Z,52.00
2018-11-21T12:20:32.772Z,52.17
2018-11-21T12:23:19.248Z,52.57
2018-11-21T12:26:10.595Z,53.04
2018-11-21T12:28:44.835Z,53.06
2018-11-21T12:31:24.613Z,53.06
2018-11-21T12:34:11.252Z,53.16
2018-11-21T12:37:17.339Z,52.44
2018-11-21T12:40:03.788Z,53.31
2018-11-21T12:42:50.327Z,53.70
2018-11-21T12:45:33.840Z,53.67
2018-11-21T12:48:30.274Z,53.90
2018-11-21T12:51:17.121Z,53.07
2018-11-21T12:54:01.226Z,52.67
2018-11-21T12:56:37.592Z,53.69
2018-11-21T12:59:31.631Z,54.52
2018-11-21T13:02:07.402Z,54.99
2018-11-21T13:04:53.863Z,55.01
2018-11-21T13:07:41.947Z,55.67
2018-11-21T13:10:26.806Z,56.15
2018-11-21T13:13:17.870Z,56.46
2018-11-21T13:16:04.838Z,57.03
2018-11-21T13:18:52.862Z,57.41
2018-11-21T13:21:44.025Z,57.51
2018-11-21T13:24:30.669Z,57.50
2018-11-21T13:27:27.471Z,58.15
2018-11-21T13:30:14.002Z,58.31
2018-11-21T13:33:13.646Z,59.45
2018-11-21T13:36:01.631Z,59.09
2018-11-21T13:39:04.999Z,59.21
2018-11-21T13:42:05.147Z,58.96
2018-11-21T13:45:02.111Z,59.18
2018-11-21T13:47:53.286Z,59.25
2018-11-21T13:50:41.383Z,59.71
2018-11-21T13:53:48.317Z,59.79
2018-11-21T13:56:17.157Z,59.40
2018-11-21T13:58:46.071Z,59.23
2018-11-21T14:01:16.021Z,59.40
2018-11-21T14:03:44.893Z,59.50
2018-11-21T14:06:13.816Z,59.40
2018-11-21T14:08:42.722Z,59.27
2018-11-21T14:11:11.883Z,59.91
2018-11-21T14:13:40.767Z,60.39
2018-11-21T14:16:09.766Z,60.24
2018-11-21T14:18:38.686Z,60.70
2018-11-21T14:21:07.613Z,61.25
2018-11-21T14:23:36.756Z,61.01
2018-11-21T14:26:06.062Z,61.05
2018-11-21T14:28:34.984Z,61.48
2018-11-21T14:31:03.984Z,61.72
2018-11-21T14:33:32.941Z,62.11
2018-11-21T14:36:01.889Z,61.73
2018-11-21T14:38:30.771Z,62.07
2018-11-21T14:40:59.662Z,62.23
2018-11-21T14:43:28.553Z,61.84
2018-11-21T14:45:57.506Z,62.16
2018-11-21T14:48:26.422Z,62.34
2018-11-21T14:50:55.387Z,62.40
2018-11-21T14:53:24.329Z,62.01
2018-11-21T14:55:53.465Z,62.39
2018-11-21T14:58:22.427Z,62.57
2018-11-21T15:00:51.342Z,62.72
2018-11-21T15:03:20.276Z,62.87
2018-11-21T15:05:49.178Z,62.63
2018-11-21T15:08:18.122Z,63.14
2018-11-21T15:10:47.041Z,63.91
2018-11-21T15:13:16.268Z,63.14
2018-11-21T15:15:45.138Z,62.49
2018-11-21T15:18:14.124Z,63.43
2018-11-21T15:20:43.112Z,63.24
2018-11-21T15:23:12.106Z,63.22
2018-11-21T15:25:41.204Z,63.52
2018-11-21T15:28:10.207Z,63.35
2018-11-21T15:30:39.282Z,63.27
2018-11-21T15:33:08.231Z,63.47
2018-11-21T15:35:37.178Z,63.34
2018-11-21T15:38:06.203Z,63.38
2018-11-21T15:40:35.206Z,64.19
2018-11-21T15:43:04.133Z,63.79
2018-11-21T15:45:33.081Z,64.49
2018-11-21T15:48:02.416Z,64.26
2018-11-21T15:50:32.263Z,64.37
2018-11-21T15:53:01.166Z,63.74
2018-11-21T15:55:30.124Z,64.77
2018-11-21T15:57:59.086Z,64.51
2018-11-21T16:00:29.581Z,64.61
2018-11-21T16:03:00.916Z,64.62
2018-11-21T16:05:29.858Z,64.72
2018-11-21T16:08:03.300Z,64.62
2018-11-21T16:10:38.402Z,64.72
2018-11-21T16:13:07.718Z,64.76
2018-11-21T16:15:39.684Z,64.89
2018-11-21T16:18:08.635Z,64.41
2018-11-21T16:20:37.554Z,65.08
2018-11-21T16:23:11.332Z,64.89
2018-11-21T16:25:42.993Z,64.79
2018-11-21T16:28:17.237Z,64.90
2018-11-21T16:30:52.457Z,64.87
2018-11-21T16:33:25.813Z,64.83
2018-11-21T16:36:02.131Z,64.81
2018-11-21T16:38:33.235Z,64.91
2018-11-21T16:41:06.970Z,64.69
2018-11-21T16:43:40.430Z,64.13
2018-11-21T16:46:10.520Z,64.20
2018-11-21T16:48:42.414Z,64.70
2018-11-21T16:51:12.288Z,64.70
2018-11-21T16:53:53.047Z,64.90
2018-11-21T16:56:26.069Z,65.39
2018-11-21T16:58:56.476Z,65.25
2018-11-21T17:01:29.580Z,65.30
2018-11-21T17:04:06.032Z,65.36
2018-11-21T17:06:40.705Z,65.33
2018-11-21T17:09:18.442Z,65.09
2018-11-21T17:11:52.203Z,66.24
2018-11-21T17:14:34.020Z,65.16
2018-11-21T17:17:09.686Z,65.20
2018-11-21T17:19:42.320Z,65.04
2018-11-21T17:22:17.344Z,65.80
2018-11-21T17:24:48.002Z,65.95
2018-11-21T17:27:17.927Z,66.13
2018-11-21T17:29:53.907Z,65.86
2018-11-21T17:32:20.670Z,65.97
2018-11-21T17:34:49.967Z,65.58
2018-11-21T17:37:21.794Z,65.03
2018-11-21T17:39:57.016Z,64.68
2018-11-21T17:42:35.895Z,65.54
2018-11-21T17:45:10.573Z,64.93
2018-11-21T17:47:40.540Z,65.17
2018-11-21T17:50:14.801Z,65.29
2018-11-21T17:52:45.050Z,64.95
2018-11-21T17:55:19.806Z,65.17
2018-11-21T17:57:50.132Z,64.81
2018-11-21T18:00:24.439Z,64.88
2018-11-21T18:02:54.092Z,64.14
2018-11-21T18:05:29.630Z,65.11
2018-11-21T18:08:03.310Z,64.87
2018-11-21T18:10:36.898Z,64.20
2018-11-21T18:13:12.652Z,64.55
2018-11-21T18:15:43.303Z,64.81
2018-11-21T18:18:18.911Z,64.83
2018-11-21T18:20:47.123Z,64.81
2018-11-21T18:23:17.265Z,64.60
2018-11-21T18:25:47.851Z,64.98
2018-11-21T18:28:18.706Z,65.27
2018-11-21T18:31:05.941Z,64.87
2018-11-21T18:33:35.682Z,64.81
2018-11-21T18:36:08.477Z,65.35
2018-11-21T18:38:38.499Z,65.88
2018-11-21T18:41:10.777Z,65.31
2018-11-21T18:43:40.346Z,65.50
2018-11-21T18:46:13.116Z,65.37
2018-11-21T18:48:40.951Z,65.99
2018-11-21T18:51:13.329Z,65.86
2018-11-21T18:53:43.257Z,65.62
2018-11-21T18:56:46.426Z,65.50
2018-11-21T18:59:52.328Z,65.76
2018-11-21T19:02:26.704Z,65.48
2018-11-21T19:04:59.943Z,66.13
2018-11-21T19:07:30.345Z,65.92
2018-11-21T19:10:06.269Z,66.13
2018-11-21T19:12:34.226Z,66.29
2018-11-21T19:15:06.641Z,66.37
2018-11-21T19:17:48.571Z,66.41
2018-11-21T19:20:17.920Z,66.40
2018-11-21T19:22:50.684Z,66.56
2018-11-21T19:25:20.908Z,66.33
2018-11-21T19:27:52.520Z,65.94
2018-11-21T19:30:23.278Z,65.95
2018-11-21T19:33:00.233Z,66.28
2018-11-21T19:35:33.353Z,66.16
2018-11-21T19:38:05.227Z,66.27
2018-11-21T19:40:34.869Z,66.13
2018-11-21T19:43:05.212Z,65.88
2018-11-21T19:45:37.646Z,66.22
2018-11-21T19:48:07.853Z,65.98
2018-11-21T19:50:42.747Z,65.97
2018-11-21T19:53:13.137Z,65.77
2018-11-21T19:55:48.289Z,65.77
2018-11-21T19:58:18.533Z,65.67
2018-11-21T20:00:48.577Z,66.21
2018-11-21T20:03:18.550Z,66.34
2018-11-21T20:05:50.786Z,66.07
2018-11-21T20:08:28.566Z,65.90
2018-11-21T20:11:08.356Z,66.09
2018-11-21T20:13:40.718Z,65.80
2018-11-21T20:16:13.332Z,65.95
2018-11-21T20:18:42.943Z,65.98
2018-11-21T20:21:14.976Z,66.45
2018-11-21T20:23:47.319Z,66.16
2018-11-21T20:26:19.260Z,66.43
2018-11-21T20:28:49.425Z,66.57
2018-11-21T20:31:22.727Z,66.90
2018-11-21T20:33:55.212Z,67.01
2018-11-21T20:36:28.017Z,67.31
2018-11-21T20:39:05.723Z,66.69
2018-11-21T20:41:38.425Z,67.25
2018-11-21T20:44:14.475Z,67.20
2018-11-21T20:46:44.348Z,67.28
2018-11-21T20:49:13.782Z,67.13
2018-11-21T20:51:46.025Z,67.21
2018-11-21T20:54:15.534Z,67.26
2018-11-21T20:56:45.697Z,67.17
2018-11-21T20:59:20.099Z,66.98
2018-11-21T21:01:53.032Z,67.21
2018-11-21T21:04:24.762Z,67.08
2018-11-21T21:06:56.904Z,67.28
2018-11-21T21:09:31.977Z,67.33
2018-11-21T21:12:00.900Z,67.38
2018-11-21T21:14:29.859Z,67.87
2018-11-21T21:16:58.777Z,67.86
2018-11-21T21:19:27.685Z,67.65
2018-11-21T21:21:56.603Z,67.84
2018-11-21T21:24:25.585Z,67.47
2018-11-21T21:26:54.501Z,67.59
2018-11-21T21:29:23.396Z,67.77
2018-11-21T21:31:52.295Z,67.77
2018-11-21T21:34:21.189Z,67.68
2018-11-21T21:36:50.162Z,67.96
2018-11-21T21:39:19.146Z,67.72
2018-11-21T21:41:49.578Z,67.72
2018-11-21T21:44:18.432Z,67.56
2018-11-21T21:46:47.344Z,67.53
2018-11-21T21:49:16.268Z,67.80
2018-11-21T21:51:45.210Z,67.54
2018-11-21T21:54:14.125Z,67.66
2018-11-21T21:56:43.027Z,67.98
2018-11-21T21:59:12.381Z,67.75
2018-11-21T22:01:41.359Z,67.60
2018-11-21T22:04:10.250Z,67.92
2018-11-21T22:06:39.203Z,67.91
2018-11-21T22:09:12.423Z,66.99
2018-11-21T22:11:41.722Z,66.68
2018-11-21T22:14:10.938Z,67.74
2018-11-21T22:16:39.868Z,67.60
2018-11-21T22:19:08.811Z,67.86
2018-11-21T22:21:37.749Z,67.62
2018-11-21T22:24:06.643Z,67.92
2018-11-21T22:26:35.584Z,68.40
2018-11-21T22:29:04.503Z,68.23
2018-11-21T22:31:33.420Z,67.66
2018-11-21T22:34:02.440Z,68.18
2018-11-21T22:36:31.314Z,68.89
2018-11-21T22:39:00.238Z,68.85
2018-11-21T22:41:29.129Z,68.45
2018-11-21T22:43:58.088Z,68.40
2018-11-21T22:46:27.037Z,68.36
2018-11-21T22:48:55.999Z,68.29
2018-11-21T22:51:24.932Z,68.41
2018-11-21T22:53:53.857Z,68.22
2018-11-21T22:56:22.752Z,68.05
2018-11-21T22:58:51.741Z,68.20
2018-11-21T23:01:28.223Z,68.58
2018-11-21T23:03:57.151Z,68.08
2018-11-21T23:06:26.049Z,68.91
2018-11-21T23:08:55.032Z,68.48
2018-11-21T23:15:06.115Z,67.41
2018-11-21T23:17:35.104Z,68.43
2018-11-21T23:20:05.398Z,68.61
2018-11-21T23:22:34.441Z,68.70
2018-11-21T23:25:03.486Z,68.61
2018-11-21T23:27:32.497Z,67.45
2018-11-21T23:30:01.591Z,68.09
2018-11-21T23:32:30.835Z,68.49
2018-11-21T23:34:59.798Z,68.17
2018-11-21T23:37:28.802Z,68.01
2018-11-21T23:39:57.752Z,67.63
2018-11-21T23:42:26.786Z,68.33
2018-11-21T23:44:55.790Z,68.39
2018-11-21T23:47:24.809Z,68.04
2018-11-21T23:49:53.788Z,68.14
2018-11-21T23:52:22.786Z,68.14
2018-11-21T23:54:51.782Z,68.39
2018-11-21T23:57:24.723Z,68.49
2018-11-21T23:59:49.751Z,68.18
